sensor_id;sensor_type;location;lat;lon;timestamp;P1;durP1;ratioP1;P2;durP2;ratioP2
50281;SDS011;36176;51.506;10.272;2023-12-20T00:01:38;4.00;;;3.70;;
50281;SDS011;36176;51.506;10.272;2023-12-20T00:04:05;4.27;;;3.93;;
50281;SDS011;36176;51.506;10.272;2023-12-20T00:06:33;4.03;;;3.73;;
50281;SDS011;36176;51.506;10.272;2023-12-20T00:09:00;3.77;;;3.47;;
50281;SDS011;36176;51.506;10.272;2023-12-20T00:11:27;4.00;;;3.70;;
50281;SDS011;36176;51.506;10.272;2023-12-20T00:13:54;4.20;;;3.90;;
50281;SDS011;36176;51.506;10.272;2023-12-20T00:16:21;3.83;;;3.53;;
50281;SDS011;36176;51.506;10.272;2023-12-20T00:18:48;4.20;;;3.90;;
50281;SDS011;36176;51.506;10.272;2023-12-20T00:21:15;4.47;;;3.80;;
50281;SDS011;36176;51.506;10.272;2023-12-20T00:23:42;3.87;;;3.57;;
50281;SDS011;36176;51.506;10.272;2023-12-20T00:26:09;4.57;;;4.17;;
50281;SDS011;36176;51.506;10.272;2023-12-20T00:28:37;3.70;;;3.40;;
50281;SDS011;36176;51.506;10.272;2023-12-20T00:31:04;3.90;;;3.60;;
50281;SDS011;36176;51.506;10.272;2023-12-20T00:33:31;2.83;;;2.63;;
50281;SDS011;36176;51.506;10.272;2023-12-20T00:35:59;3.30;;;3.00;;
50281;SDS011;36176;51.506;10.272;2023-12-20T00:38:26;3.17;;;2.93;;
50281;SDS011;36176;51.506;10.272;2023-12-20T00:40:53;3.50;;;3.20;;
50281;SDS011;36176;51.506;10.272;2023-12-20T00:43:20;3.20;;;3.00;;
50281;SDS011;36176;51.506;10.272;2023-12-20T00:45:47;3.90;;;3.50;;
50281;SDS011;36176;51.506;10.272;2023-12-20T00:48:14;3.90;;;3.50;;
50281;SDS011;36176;51.506;10.272;2023-12-20T00:50:41;4.00;;;3.60;;
50281;SDS011;36176;51.506;10.272;2023-12-20T00:53:09;3.50;;;3.20;;
50281;SDS011;36176;51.506;10.272;2023-12-20T00:55:36;4.67;;;4.27;;
50281;SDS011;36176;51.506;10.272;2023-12-20T00:58:03;6.73;;;5.00;;
50281;SDS011;36176;51.506;10.272;2023-12-20T01:00:30;4.80;;;4.33;;
50281;SDS011;36176;51.506;10.272;2023-12-20T01:02:58;3.50;;;3.20;;
50281;SDS011;36176;51.506;10.272;2023-12-20T01:05:25;4.20;;;3.70;;
50281;SDS011;36176;51.506;10.272;2023-12-20T01:07:52;4.87;;;4.17;;
50281;SDS011;36176;51.506;10.272;2023-12-20T01:10:19;4.10;;;3.70;;
50281;SDS011;36176;51.506;10.272;2023-12-20T01:12:46;3.80;;;3.50;;
50281;SDS011;36176;51.506;10.272;2023-12-20T01:15:13;5.70;;;5.20;;
50281;SDS011;36176;51.506;10.272;2023-12-20T01:17:41;4.40;;;4.00;;
50281;SDS011;36176;51.506;10.272;2023-12-20T01:20:08;4.20;;;3.50;;
50281;SDS011;36176;51.506;10.272;2023-12-20T01:22:35;3.60;;;3.30;;
50281;SDS011;36176;51.506;10.272;2023-12-20T01:25:02;3.70;;;3.40;;
50281;SDS011;36176;51.506;10.272;2023-12-20T01:27:30;4.10;;;3.70;;
50281;SDS011;36176;51.506;10.272;2023-12-20T01:29:57;4.40;;;4.00;;
50281;SDS011;36176;51.506;10.272;2023-12-20T01:32:24;3.97;;;3.67;;
50281;SDS011;36176;51.506;10.272;2023-12-20T01:34:51;4.40;;;4.00;;
50281;SDS011;36176;51.506;10.272;2023-12-20T01:37:19;4.53;;;3.93;;
50281;SDS011;36176;51.506;10.272;2023-12-20T01:39:46;4.23;;;3.83;;
50281;SDS011;36176;51.506;10.272;2023-12-20T01:42:13;3.63;;;3.33;;
50281;SDS011;36176;51.506;10.272;2023-12-20T01:44:40;3.70;;;3.40;;
50281;SDS011;36176;51.506;10.272;2023-12-20T01:47:07;4.70;;;4.17;;
50281;SDS011;36176;51.506;10.272;2023-12-20T01:49:35;3.90;;;3.60;;
50281;SDS011;36176;51.506;10.272;2023-12-20T01:52:02;4.13;;;3.80;;
50281;SDS011;36176;51.506;10.272;2023-12-20T01:54:30;3.73;;;3.43;;
50281;SDS011;36176;51.506;10.272;2023-12-20T01:56:58;3.80;;;3.50;;
50281;SDS011;36176;51.506;10.272;2023-12-20T01:59:26;3.70;;;3.40;;
50281;SDS011;36176;51.506;10.272;2023-12-20T02:01:55;4.00;;;3.70;;
50281;SDS011;36176;51.506;10.272;2023-12-20T02:04:22;4.07;;;3.67;;
50281;SDS011;36176;51.506;10.272;2023-12-20T02:06:52;6.13;;;4.60;;
50281;SDS011;36176;51.506;10.272;2023-12-20T02:09:19;4.30;;;3.90;;
50281;SDS011;36176;51.506;10.272;2023-12-20T02:11:46;4.03;;;3.70;;
50281;SDS011;36176;51.506;10.272;2023-12-20T02:14:14;3.80;;;3.50;;
50281;SDS011;36176;51.506;10.272;2023-12-20T02:16:41;3.73;;;3.43;;
50281;SDS011;36176;51.506;10.272;2023-12-20T02:19:09;4.87;;;4.47;;
50281;SDS011;36176;51.506;10.272;2023-12-20T02:21:40;4.37;;;3.87;;
50281;SDS011;36176;51.506;10.272;2023-12-20T02:24:07;4.60;;;4.20;;
50281;SDS011;36176;51.506;10.272;2023-12-20T02:26:35;4.33;;;3.97;;
50281;SDS011;36176;51.506;10.272;2023-12-20T02:29:02;4.70;;;4.30;;
50281;SDS011;36176;51.506;10.272;2023-12-20T02:31:29;3.97;;;3.67;;
50281;SDS011;36176;51.506;10.272;2023-12-20T02:33:56;5.37;;;4.87;;
50281;SDS011;36176;51.506;10.272;2023-12-20T02:36:23;5.30;;;4.80;;
50281;SDS011;36176;51.506;10.272;2023-12-20T02:38:50;5.17;;;4.70;;
50281;SDS011;36176;51.506;10.272;2023-12-20T02:41:17;5.13;;;4.70;;
50281;SDS011;36176;51.506;10.272;2023-12-20T02:43:45;5.10;;;4.70;;
50281;SDS011;36176;51.506;10.272;2023-12-20T02:46:13;5.53;;;5.07;;
50281;SDS011;36176;51.506;10.272;2023-12-20T02:48:42;5.60;;;5.10;;
50281;SDS011;36176;51.506;10.272;2023-12-20T02:51:09;5.47;;;4.97;;
50281;SDS011;36176;51.506;10.272;2023-12-20T02:53:36;4.80;;;4.37;;
50281;SDS011;36176;51.506;10.272;2023-12-20T02:56:03;4.80;;;4.30;;
50281;SDS011;36176;51.506;10.272;2023-12-20T02:58:31;4.60;;;4.20;;
50281;SDS011;36176;51.506;10.272;2023-12-20T03:01:01;4.70;;;3.97;;
50281;SDS011;36176;51.506;10.272;2023-12-20T03:03:28;4.10;;;3.70;;
50281;SDS011;36176;51.506;10.272;2023-12-20T03:05:55;4.50;;;3.60;;
50281;SDS011;36176;51.506;10.272;2023-12-20T03:08:22;3.60;;;3.30;;
50281;SDS011;36176;51.506;10.272;2023-12-20T03:10:50;3.70;;;3.40;;
50281;SDS011;36176;51.506;10.272;2023-12-20T03:13:17;4.30;;;3.67;;
50281;SDS011;36176;51.506;10.272;2023-12-20T03:15:44;3.53;;;3.23;;
50281;SDS011;36176;51.506;10.272;2023-12-20T03:18:12;4.10;;;3.50;;
50281;SDS011;36176;51.506;10.272;2023-12-20T03:20:39;3.63;;;3.33;;
50281;SDS011;36176;51.506;10.272;2023-12-20T03:23:06;3.67;;;3.33;;
50281;SDS011;36176;51.506;10.272;2023-12-20T03:25:32;3.43;;;3.13;;
50281;SDS011;36176;51.506;10.272;2023-12-20T03:28:00;3.90;;;3.30;;
50281;SDS011;36176;51.506;10.272;2023-12-20T03:30:27;3.77;;;3.20;;
50281;SDS011;36176;51.506;10.272;2023-12-20T03:32:54;3.43;;;3.13;;
50281;SDS011;36176;51.506;10.272;2023-12-20T03:35:21;4.77;;;3.30;;
50281;SDS011;36176;51.506;10.272;2023-12-20T03:37:48;3.77;;;3.33;;
50281;SDS011;36176;51.506;10.272;2023-12-20T03:40:16;3.60;;;3.20;;
50281;SDS011;36176;51.506;10.272;2023-12-20T03:42:43;4.93;;;3.30;;
50281;SDS011;36176;51.506;10.272;2023-12-20T03:45:10;4.60;;;3.20;;
50281;SDS011;36176;51.506;10.272;2023-12-20T03:47:37;5.23;;;3.20;;
50281;SDS011;36176;51.506;10.272;2023-12-20T03:50:04;5.47;;;3.10;;
50281;SDS011;36176;51.506;10.272;2023-12-20T03:52:32;3.90;;;3.13;;
50281;SDS011;36176;51.506;10.272;2023-12-20T03:54:59;4.33;;;2.80;;
50281;SDS011;36176;51.506;10.272;2023-12-20T03:57:26;5.70;;;3.40;;
50281;SDS011;36176;51.506;10.272;2023-12-20T03:59:54;4.00;;;2.80;;
50281;SDS011;36176;51.506;10.272;2023-12-20T04:02:21;2.97;;;2.67;;
50281;SDS011;36176;51.506;10.272;2023-12-20T04:04:48;4.30;;;2.77;;
50281;SDS011;36176;51.506;10.272;2023-12-20T04:07:15;3.70;;;2.77;;
50281;SDS011;36176;51.506;10.272;2023-12-20T04:09:42;3.17;;;2.60;;
50281;SDS011;36176;51.506;10.272;2023-12-20T04:12:09;2.90;;;2.50;;
50281;SDS011;36176;51.506;10.272;2023-12-20T04:14:36;3.90;;;2.90;;
50281;SDS011;36176;51.506;10.272;2023-12-20T04:17:03;4.10;;;2.60;;
50281;SDS011;36176;51.506;10.272;2023-12-20T04:19:31;3.70;;;2.73;;
50281;SDS011;36176;51.506;10.272;2023-12-20T04:21:58;3.90;;;2.60;;
50281;SDS011;36176;51.506;10.272;2023-12-20T04:24:25;3.50;;;2.20;;
50281;SDS011;36176;51.506;10.272;2023-12-20T04:26:52;4.70;;;2.50;;
50281;SDS011;36176;51.506;10.272;2023-12-20T04:29:19;2.73;;;2.07;;
50281;SDS011;36176;51.506;10.272;2023-12-20T04:31:46;4.77;;;2.20;;
50281;SDS011;36176;51.506;10.272;2023-12-20T04:34:13;3.43;;;2.30;;
50281;SDS011;36176;51.506;10.272;2023-12-20T04:36:41;3.97;;;2.30;;
50281;SDS011;36176;51.506;10.272;2023-12-20T04:39:08;4.13;;;2.20;;
50281;SDS011;36176;51.506;10.272;2023-12-20T04:41:35;4.33;;;2.37;;
50281;SDS011;36176;51.506;10.272;2023-12-20T04:44:02;4.40;;;2.13;;
50281;SDS011;36176;51.506;10.272;2023-12-20T04:46:30;3.87;;;2.20;;
50281;SDS011;36176;51.506;10.272;2023-12-20T04:48:57;5.90;;;2.20;;
50281;SDS011;36176;51.506;10.272;2023-12-20T04:51:24;4.47;;;2.20;;
50281;SDS011;36176;51.506;10.272;2023-12-20T04:53:51;4.20;;;2.10;;
50281;SDS011;36176;51.506;10.272;2023-12-20T04:56:18;3.53;;;2.20;;
50281;SDS011;36176;51.506;10.272;2023-12-20T04:58:45;2.93;;;2.03;;
50281;SDS011;36176;51.506;10.272;2023-12-20T05:01:12;4.20;;;2.27;;
50281;SDS011;36176;51.506;10.272;2023-12-20T05:03:39;4.93;;;2.13;;
50281;SDS011;36176;51.506;10.272;2023-12-20T05:06:06;4.50;;;2.20;;
50281;SDS011;36176;51.506;10.272;2023-12-20T05:08:33;3.67;;;2.57;;
50281;SDS011;36176;51.506;10.272;2023-12-20T05:11:01;4.63;;;2.47;;
50281;SDS011;36176;51.506;10.272;2023-12-20T05:13:28;4.07;;;2.73;;
50281;SDS011;36176;51.506;10.272;2023-12-20T05:16:10;5.07;;;2.80;;
50281;SDS011;36176;51.506;10.272;2023-12-20T05:18:37;6.23;;;2.73;;
50281;SDS011;36176;51.506;10.272;2023-12-20T05:21:05;4.90;;;2.70;;
50281;SDS011;36176;51.506;10.272;2023-12-20T05:23:32;4.83;;;2.53;;
50281;SDS011;36176;51.506;10.272;2023-12-20T05:25:59;4.23;;;2.67;;
50281;SDS011;36176;51.506;10.272;2023-12-20T05:28:26;6.10;;;2.70;;
50281;SDS011;36176;51.506;10.272;2023-12-20T05:30:53;5.40;;;2.60;;
50281;SDS011;36176;51.506;10.272;2023-12-20T05:33:21;5.80;;;2.90;;
50281;SDS011;36176;51.506;10.272;2023-12-20T05:35:48;4.57;;;2.70;;
50281;SDS011;36176;51.506;10.272;2023-12-20T05:38:15;4.53;;;2.60;;
50281;SDS011;36176;51.506;10.272;2023-12-20T05:40:45;4.07;;;2.60;;
50281;SDS011;36176;51.506;10.272;2023-12-20T05:43:12;4.50;;;2.63;;
50281;SDS011;36176;51.506;10.272;2023-12-20T05:45:39;4.20;;;2.43;;
50281;SDS011;36176;51.506;10.272;2023-12-20T05:48:06;5.60;;;2.70;;
50281;SDS011;36176;51.506;10.272;2023-12-20T05:50:34;4.57;;;2.30;;
50281;SDS011;36176;51.506;10.272;2023-12-20T05:53:01;5.67;;;2.50;;
50281;SDS011;36176;51.506;10.272;2023-12-20T05:55:28;4.73;;;2.60;;
50281;SDS011;36176;51.506;10.272;2023-12-20T05:57:55;5.03;;;2.40;;
50281;SDS011;36176;51.506;10.272;2023-12-20T06:00:23;4.73;;;2.60;;
50281;SDS011;36176;51.506;10.272;2023-12-20T06:02:50;5.17;;;2.60;;
50281;SDS011;36176;51.506;10.272;2023-12-20T06:05:17;6.20;;;2.80;;
50281;SDS011;36176;51.506;10.272;2023-12-20T06:07:45;5.60;;;2.93;;
50281;SDS011;36176;51.506;10.272;2023-12-20T06:10:12;4.83;;;2.90;;
50281;SDS011;36176;51.506;10.272;2023-12-20T06:12:40;8.47;;;2.80;;
50281;SDS011;36176;51.506;10.272;2023-12-20T06:15:07;5.70;;;2.80;;
50281;SDS011;36176;51.506;10.272;2023-12-20T06:17:34;5.23;;;2.60;;
50281;SDS011;36176;51.506;10.272;2023-12-20T06:20:01;3.70;;;2.40;;
50281;SDS011;36176;51.506;10.272;2023-12-20T06:22:29;6.23;;;3.10;;
50281;SDS011;36176;51.506;10.272;2023-12-20T06:24:57;5.33;;;3.00;;
50281;SDS011;36176;51.506;10.272;2023-12-20T06:27:24;5.70;;;2.93;;
50281;SDS011;36176;51.506;10.272;2023-12-20T06:29:51;5.77;;;3.20;;
50281;SDS011;36176;51.506;10.272;2023-12-20T06:32:18;7.67;;;3.80;;
50281;SDS011;36176;51.506;10.272;2023-12-20T06:34:46;6.50;;;3.50;;
50281;SDS011;36176;51.506;10.272;2023-12-20T06:37:13;5.43;;;3.30;;
50281;SDS011;36176;51.506;10.272;2023-12-20T06:39:40;5.83;;;3.20;;
50281;SDS011;36176;51.506;10.272;2023-12-20T06:42:07;9.23;;;5.77;;
50281;SDS011;36176;51.506;10.272;2023-12-20T06:44:35;8.63;;;6.13;;
50281;SDS011;36176;51.506;10.272;2023-12-20T06:47:02;6.13;;;2.80;;
50281;SDS011;36176;51.506;10.272;2023-12-20T06:49:29;8.83;;;2.70;;
50281;SDS011;36176;51.506;10.272;2023-12-20T06:51:56;12.17;;;7.00;;
50281;SDS011;36176;51.506;10.272;2023-12-20T06:54:24;6.87;;;4.23;;
50281;SDS011;36176;51.506;10.272;2023-12-20T06:56:51;7.90;;;4.23;;
50281;SDS011;36176;51.506;10.272;2023-12-20T06:59:18;8.33;;;6.70;;
50281;SDS011;36176;51.506;10.272;2023-12-20T07:01:47;6.43;;;3.73;;
50281;SDS011;36176;51.506;10.272;2023-12-20T07:04:15;6.10;;;3.20;;
50281;SDS011;36176;51.506;10.272;2023-12-20T07:06:43;3.87;;;2.53;;
50281;SDS011;36176;51.506;10.272;2023-12-20T07:09:10;6.47;;;2.47;;
50281;SDS011;36176;51.506;10.272;2023-12-20T07:11:37;6.50;;;2.70;;
50281;SDS011;36176;51.506;10.272;2023-12-20T07:14:04;5.07;;;2.70;;
50281;SDS011;36176;51.506;10.272;2023-12-20T07:16:32;5.70;;;2.50;;
50281;SDS011;36176;51.506;10.272;2023-12-20T07:18:59;5.57;;;2.43;;
50281;SDS011;36176;51.506;10.272;2023-12-20T07:21:26;4.37;;;2.47;;
50281;SDS011;36176;51.506;10.272;2023-12-20T07:23:53;8.60;;;4.03;;
50281;SDS011;36176;51.506;10.272;2023-12-20T07:26:21;11.77;;;6.40;;
50281;SDS011;36176;51.506;10.272;2023-12-20T07:28:48;7.30;;;4.13;;
50281;SDS011;36176;51.506;10.272;2023-12-20T07:31:15;5.97;;;2.90;;
50281;SDS011;36176;51.506;10.272;2023-12-20T07:33:42;6.43;;;2.67;;
50281;SDS011;36176;51.506;10.272;2023-12-20T07:36:11;7.87;;;2.60;;
50281;SDS011;36176;51.506;10.272;2023-12-20T07:38:39;4.30;;;2.70;;
50281;SDS011;36176;51.506;10.272;2023-12-20T07:41:06;8.53;;;3.43;;
50281;SDS011;36176;51.506;10.272;2023-12-20T07:43:35;5.87;;;3.10;;
50281;SDS011;36176;51.506;10.272;2023-12-20T07:46:06;8.47;;;3.47;;
50281;SDS011;36176;51.506;10.272;2023-12-20T07:48:34;5.23;;;2.87;;
50281;SDS011;36176;51.506;10.272;2023-12-20T07:51:02;6.33;;;3.13;;
50281;SDS011;36176;51.506;10.272;2023-12-20T07:53:30;6.47;;;3.30;;
50281;SDS011;36176;51.506;10.272;2023-12-20T07:55:57;6.27;;;3.40;;
50281;SDS011;36176;51.506;10.272;2023-12-20T07:58:24;7.43;;;3.40;;
50281;SDS011;36176;51.506;10.272;2023-12-20T08:01:10;4.43;;;3.00;;
50281;SDS011;36176;51.506;10.272;2023-12-20T08:03:38;5.23;;;2.93;;
50281;SDS011;36176;51.506;10.272;2023-12-20T08:06:06;9.20;;;3.20;;
50281;SDS011;36176;51.506;10.272;2023-12-20T08:08:33;6.70;;;3.40;;
50281;SDS011;36176;51.506;10.272;2023-12-20T08:11:00;5.27;;;2.97;;
50281;SDS011;36176;51.506;10.272;2023-12-20T08:13:27;6.50;;;3.17;;
50281;SDS011;36176;51.506;10.272;2023-12-20T08:15:55;5.73;;;2.90;;
50281;SDS011;36176;51.506;10.272;2023-12-20T08:18:22;7.03;;;3.20;;
50281;SDS011;36176;51.506;10.272;2023-12-20T08:20:49;8.53;;;3.50;;
50281;SDS011;36176;51.506;10.272;2023-12-20T08:23:16;8.67;;;3.50;;
50281;SDS011;36176;51.506;10.272;2023-12-20T08:25:44;9.47;;;4.37;;
50281;SDS011;36176;51.506;10.272;2023-12-20T08:28:11;5.97;;;3.73;;
50281;SDS011;36176;51.506;10.272;2023-12-20T08:30:38;7.80;;;3.80;;
50281;SDS011;36176;51.506;10.272;2023-12-20T08:33:05;7.03;;;4.10;;
50281;SDS011;36176;51.506;10.272;2023-12-20T08:35:33;8.67;;;3.40;;
50281;SDS011;36176;51.506;10.272;2023-12-20T08:38:01;8.60;;;3.67;;
50281;SDS011;36176;51.506;10.272;2023-12-20T08:40:28;11.33;;;4.00;;
50281;SDS011;36176;51.506;10.272;2023-12-20T08:42:55;8.97;;;3.80;;
50281;SDS011;36176;51.506;10.272;2023-12-20T08:45:23;9.07;;;4.27;;
50281;SDS011;36176;51.506;10.272;2023-12-20T08:47:50;8.27;;;3.97;;
50281;SDS011;36176;51.506;10.272;2023-12-20T08:50:18;7.37;;;3.90;;
50281;SDS011;36176;51.506;10.272;2023-12-20T08:52:45;9.83;;;3.93;;
50281;SDS011;36176;51.506;10.272;2023-12-20T08:55:12;8.50;;;3.87;;
50281;SDS011;36176;51.506;10.272;2023-12-20T08:57:39;7.00;;;4.00;;
50281;SDS011;36176;51.506;10.272;2023-12-20T09:00:07;7.93;;;3.97;;
50281;SDS011;36176;51.506;10.272;2023-12-20T09:02:35;9.97;;;3.87;;
50281;SDS011;36176;51.506;10.272;2023-12-20T09:05:02;9.27;;;3.90;;
50281;SDS011;36176;51.506;10.272;2023-12-20T09:07:29;9.47;;;3.80;;
50281;SDS011;36176;51.506;10.272;2023-12-20T09:09:57;8.90;;;3.63;;
50281;SDS011;36176;51.506;10.272;2023-12-20T09:12:25;7.63;;;3.97;;
50281;SDS011;36176;51.506;10.272;2023-12-20T09:14:52;7.27;;;3.57;;
50281;SDS011;36176;51.506;10.272;2023-12-20T09:17:19;8.97;;;4.00;;
50281;SDS011;36176;51.506;10.272;2023-12-20T09:19:46;8.70;;;4.07;;
50281;SDS011;36176;51.506;10.272;2023-12-20T09:22:14;9.03;;;3.63;;
50281;SDS011;36176;51.506;10.272;2023-12-20T09:24:41;8.07;;;3.83;;
50281;SDS011;36176;51.506;10.272;2023-12-20T09:27:11;10.27;;;4.63;;
50281;SDS011;36176;51.506;10.272;2023-12-20T09:29:39;8.37;;;3.80;;
50281;SDS011;36176;51.506;10.272;2023-12-20T09:32:05;7.23;;;3.93;;
50281;SDS011;36176;51.506;10.272;2023-12-20T09:34:33;7.43;;;3.60;;
50281;SDS011;36176;51.506;10.272;2023-12-20T09:37:00;8.13;;;3.77;;
50281;SDS011;36176;51.506;10.272;2023-12-20T09:39:27;6.60;;;3.53;;
50281;SDS011;36176;51.506;10.272;2023-12-20T09:42:01;6.90;;;3.60;;
50281;SDS011;36176;51.506;10.272;2023-12-20T09:44:29;6.10;;;3.10;;
50281;SDS011;36176;51.506;10.272;2023-12-20T09:46:57;9.90;;;3.80;;
50281;SDS011;36176;51.506;10.272;2023-12-20T09:49:25;6.17;;;3.20;;
50281;SDS011;36176;51.506;10.272;2023-12-20T09:51:54;6.67;;;3.33;;
50281;SDS011;36176;51.506;10.272;2023-12-20T09:54:22;6.40;;;3.60;;
50281;SDS011;36176;51.506;10.272;2023-12-20T09:56:50;6.07;;;3.63;;
50281;SDS011;36176;51.506;10.272;2023-12-20T09:59:17;6.23;;;3.27;;
50281;SDS011;36176;51.506;10.272;2023-12-20T10:01:45;5.97;;;3.20;;
50281;SDS011;36176;51.506;10.272;2023-12-20T10:04:12;5.03;;;3.37;;
50281;SDS011;36176;51.506;10.272;2023-12-20T10:06:55;6.90;;;3.17;;
50281;SDS011;36176;51.506;10.272;2023-12-20T10:09:22;5.23;;;3.23;;
50281;SDS011;36176;51.506;10.272;2023-12-20T10:11:50;5.53;;;3.27;;
50281;SDS011;36176;51.506;10.272;2023-12-20T10:14:21;6.53;;;3.57;;
50281;SDS011;36176;51.506;10.272;2023-12-20T10:16:48;5.47;;;3.30;;
50281;SDS011;36176;51.506;10.272;2023-12-20T10:19:19;7.03;;;3.50;;
50281;SDS011;36176;51.506;10.272;2023-12-20T10:21:46;5.37;;;3.30;;
50281;SDS011;36176;51.506;10.272;2023-12-20T10:24:17;6.97;;;3.27;;
50281;SDS011;36176;51.506;10.272;2023-12-20T10:26:45;6.47;;;3.30;;
50281;SDS011;36176;51.506;10.272;2023-12-20T10:29:12;6.57;;;3.40;;
50281;SDS011;36176;51.506;10.272;2023-12-20T10:31:39;5.73;;;3.30;;
50281;SDS011;36176;51.506;10.272;2023-12-20T10:34:06;7.07;;;3.30;;
50281;SDS011;36176;51.506;10.272;2023-12-20T10:36:34;4.67;;;3.23;;
50281;SDS011;36176;51.506;10.272;2023-12-20T10:39:01;6.77;;;3.13;;
50281;SDS011;36176;51.506;10.272;2023-12-20T10:41:32;7.10;;;3.40;;
50281;SDS011;36176;51.506;10.272;2023-12-20T10:44:03;7.33;;;3.30;;
50281;SDS011;36176;51.506;10.272;2023-12-20T10:46:31;6.03;;;3.03;;
50281;SDS011;36176;51.506;10.272;2023-12-20T10:48:58;4.47;;;2.97;;
50281;SDS011;36176;51.506;10.272;2023-12-20T10:51:28;5.67;;;2.83;;
50281;SDS011;36176;51.506;10.272;2023-12-20T10:53:56;5.43;;;2.70;;
50281;SDS011;36176;51.506;10.272;2023-12-20T10:56:23;5.20;;;2.60;;
50281;SDS011;36176;51.506;10.272;2023-12-20T10:58:50;4.73;;;2.70;;
50281;SDS011;36176;51.506;10.272;2023-12-20T11:01:18;4.50;;;2.70;;
50281;SDS011;36176;51.506;10.272;2023-12-20T11:03:50;4.90;;;2.63;;
50281;SDS011;36176;51.506;10.272;2023-12-20T11:09:08;5.70;;;3.20;;
50281;SDS011;36176;51.506;10.272;2023-12-20T11:11:52;6.70;;;3.40;;
50281;SDS011;36176;51.506;10.272;2023-12-20T11:17:09;3.87;;;2.70;;
50281;SDS011;36176;51.506;10.272;2023-12-20T11:19:38;5.13;;;2.90;;
50281;SDS011;36176;51.506;10.272;2023-12-20T11:22:26;4.03;;;2.60;;
50281;SDS011;36176;51.506;10.272;2023-12-20T11:24:54;5.40;;;2.70;;
50281;SDS011;36176;51.506;10.272;2023-12-20T11:27:26;4.80;;;2.60;;
50281;SDS011;36176;51.506;10.272;2023-12-20T11:29:54;4.10;;;2.70;;
50281;SDS011;36176;51.506;10.272;2023-12-20T11:34:51;5.50;;;2.80;;
50281;SDS011;36176;51.506;10.272;2023-12-20T11:37:20;3.67;;;2.50;;
50281;SDS011;36176;51.506;10.272;2023-12-20T11:39:55;4.63;;;2.63;;
50281;SDS011;36176;51.506;10.272;2023-12-20T11:42:22;3.57;;;2.60;;
50281;SDS011;36176;51.506;10.272;2023-12-20T11:44:49;4.97;;;2.90;;
50281;SDS011;36176;51.506;10.272;2023-12-20T11:47:17;4.60;;;2.90;;
50281;SDS011;36176;51.506;10.272;2023-12-20T11:49:46;5.33;;;2.87;;
50281;SDS011;36176;51.506;10.272;2023-12-20T11:52:14;5.57;;;2.97;;
50281;SDS011;36176;51.506;10.272;2023-12-20T11:54:42;5.20;;;3.30;;
50281;SDS011;36176;51.506;10.272;2023-12-20T11:57:09;4.73;;;3.27;;
50281;SDS011;36176;51.506;10.272;2023-12-20T11:59:37;4.80;;;2.90;;
50281;SDS011;36176;51.506;10.272;2023-12-20T12:02:04;4.87;;;2.87;;
50281;SDS011;36176;51.506;10.272;2023-12-20T12:04:31;4.57;;;3.00;;
50281;SDS011;36176;51.506;10.272;2023-12-20T12:06:59;5.50;;;3.00;;
50281;SDS011;36176;51.506;10.272;2023-12-20T12:09:26;5.23;;;2.80;;
50281;SDS011;36176;51.506;10.272;2023-12-20T12:11:53;4.80;;;2.67;;
50281;SDS011;36176;51.506;10.272;2023-12-20T12:14:20;5.37;;;2.70;;
50281;SDS011;36176;51.506;10.272;2023-12-20T12:16:47;4.77;;;2.90;;
50281;SDS011;36176;51.506;10.272;2023-12-20T12:19:21;4.67;;;2.60;;
50281;SDS011;36176;51.506;10.272;2023-12-20T12:21:50;6.33;;;2.80;;
50281;SDS011;36176;51.506;10.272;2023-12-20T12:24:33;5.37;;;2.80;;
50281;SDS011;36176;51.506;10.272;2023-12-20T12:27:00;5.10;;;2.77;;
50281;SDS011;36176;51.506;10.272;2023-12-20T12:29:28;6.40;;;2.83;;
50281;SDS011;36176;51.506;10.272;2023-12-20T12:31:55;5.73;;;3.57;;
50281;SDS011;36176;51.506;10.272;2023-12-20T12:34:22;4.37;;;2.57;;
50281;SDS011;36176;51.506;10.272;2023-12-20T12:36:50;4.03;;;2.57;;
50281;SDS011;36176;51.506;10.272;2023-12-20T12:39:17;5.57;;;3.17;;
50281;SDS011;36176;51.506;10.272;2023-12-20T12:41:45;5.37;;;2.63;;
50281;SDS011;36176;51.506;10.272;2023-12-20T12:44:12;5.67;;;3.37;;
50281;SDS011;36176;51.506;10.272;2023-12-20T12:46:44;5.53;;;3.37;;
50281;SDS011;36176;51.506;10.272;2023-12-20T12:49:12;5.20;;;3.13;;
50281;SDS011;36176;51.506;10.272;2023-12-20T12:51:40;5.27;;;2.70;;
50281;SDS011;36176;51.506;10.272;2023-12-20T12:54:07;4.47;;;2.50;;
50281;SDS011;36176;51.506;10.272;2023-12-20T12:56:34;4.63;;;2.77;;
50281;SDS011;36176;51.506;10.272;2023-12-20T12:59:02;5.70;;;3.00;;
50281;SDS011;36176;51.506;10.272;2023-12-20T13:01:29;5.20;;;2.70;;
50281;SDS011;36176;51.506;10.272;2023-12-20T13:03:56;3.93;;;2.90;;
50281;SDS011;36176;51.506;10.272;2023-12-20T13:06:24;3.97;;;2.67;;
50281;SDS011;36176;51.506;10.272;2023-12-20T13:08:51;4.93;;;2.70;;
50281;SDS011;36176;51.506;10.272;2023-12-20T13:11:18;6.63;;;4.03;;
50281;SDS011;36176;51.506;10.272;2023-12-20T13:13:45;4.80;;;3.20;;
50281;SDS011;36176;51.506;10.272;2023-12-20T13:16:12;6.17;;;3.43;;
50281;SDS011;36176;51.506;10.272;2023-12-20T13:18:40;5.10;;;3.20;;
50281;SDS011;36176;51.506;10.272;2023-12-20T13:21:08;5.33;;;3.57;;
50281;SDS011;36176;51.506;10.272;2023-12-20T13:23:35;6.40;;;3.40;;
50281;SDS011;36176;51.506;10.272;2023-12-20T13:26:06;6.00;;;3.43;;
50281;SDS011;36176;51.506;10.272;2023-12-20T13:28:34;4.40;;;3.20;;
50281;SDS011;36176;51.506;10.272;2023-12-20T13:31:01;5.33;;;3.70;;
50281;SDS011;36176;51.506;10.272;2023-12-20T13:33:28;6.03;;;3.57;;
50281;SDS011;36176;51.506;10.272;2023-12-20T13:35:56;5.53;;;3.73;;
50281;SDS011;36176;51.506;10.272;2023-12-20T13:38:23;5.80;;;3.30;;
50281;SDS011;36176;51.506;10.272;2023-12-20T13:40:50;5.70;;;4.03;;
50281;SDS011;36176;51.506;10.272;2023-12-20T13:43:17;4.73;;;3.47;;
50281;SDS011;36176;51.506;10.272;2023-12-20T13:45:44;4.17;;;3.20;;
50281;SDS011;36176;51.506;10.272;2023-12-20T13:48:12;3.13;;;2.80;;
50281;SDS011;36176;51.506;10.272;2023-12-20T13:50:39;4.63;;;3.00;;
50281;SDS011;36176;51.506;10.272;2023-12-20T13:53:06;3.60;;;3.00;;
50281;SDS011;36176;51.506;10.272;2023-12-20T13:55:33;5.43;;;2.80;;
50281;SDS011;36176;51.506;10.272;2023-12-20T13:58:04;3.23;;;2.83;;
50281;SDS011;36176;51.506;10.272;2023-12-20T14:00:31;4.30;;;2.83;;
50281;SDS011;36176;51.506;10.272;2023-12-20T14:02:58;3.70;;;2.70;;
50281;SDS011;36176;51.506;10.272;2023-12-20T14:05:26;4.60;;;2.83;;
50281;SDS011;36176;51.506;10.272;2023-12-20T14:07:55;3.80;;;2.93;;
50281;SDS011;36176;51.506;10.272;2023-12-20T14:10:22;4.30;;;3.00;;
50281;SDS011;36176;51.506;10.272;2023-12-20T14:12:50;3.77;;;2.87;;
50281;SDS011;36176;51.506;10.272;2023-12-20T14:15:17;3.20;;;2.90;;
50281;SDS011;36176;51.506;10.272;2023-12-20T14:17:44;3.93;;;3.07;;
50281;SDS011;36176;51.506;10.272;2023-12-20T14:20:13;3.80;;;2.90;;
50281;SDS011;36176;51.506;10.272;2023-12-20T14:22:40;3.97;;;2.90;;
50281;SDS011;36176;51.506;10.272;2023-12-20T14:25:07;4.00;;;3.03;;
50281;SDS011;36176;51.506;10.272;2023-12-20T14:27:34;5.03;;;3.13;;
50281;SDS011;36176;51.506;10.272;2023-12-20T14:30:02;4.60;;;3.23;;
50281;SDS011;36176;51.506;10.272;2023-12-20T14:32:31;4.53;;;3.13;;
50281;SDS011;36176;51.506;10.272;2023-12-20T14:34:58;5.97;;;3.13;;
50281;SDS011;36176;51.506;10.272;2023-12-20T14:37:25;4.30;;;2.97;;
50281;SDS011;36176;51.506;10.272;2023-12-20T14:39:52;4.90;;;3.50;;
50281;SDS011;36176;51.506;10.272;2023-12-20T14:42:20;4.93;;;3.30;;
50281;SDS011;36176;51.506;10.272;2023-12-20T14:44:47;5.43;;;3.40;;